createdAt,value
2018-09-14T00:00:05.655Z,98835.46
2018-09-14T00:02:33.520Z,98834.67
2018-09-14T00:05:01.202Z,98838.94
2018-09-14T00:07:28.885Z,98842.95
2018-09-14T00:09:56.612Z,98841.63
2018-09-14T00:12:24.298Z,98835.48
2018-09-14T00:14:51.887Z,98840.56
2018-09-14T00:17:19.636Z,98836.82
2018-09-14T00:19:47.415Z,98838.94
2018-09-14T00:22:14.998Z,98839.50
2018-09-14T00:24:42.630Z,98834.42
2018-09-14T00:27:10.525Z,98838.69
2018-09-14T00:29:37.574Z,98837.60
2018-09-14T00:32:05.497Z,98840.03
2018-09-14T00:34:33.197Z,98838.97
2018-09-14T00:37:00.859Z,98833.61
2018-09-14T00:39:28.924Z,98836.02
2018-09-14T00:41:56.714Z,98833.08
2018-09-14T00:44:24.492Z,98831.20
2018-09-14T00:46:52.054Z,98833.89
2018-09-14T00:49:19.860Z,98831.20
2018-09-14T00:51:47.036Z,98830.68
2018-09-14T00:54:14.443Z,98827.72
2018-09-14T00:56:42.196Z,98825.85
2018-09-14T00:59:09.882Z,98825.31
2018-09-14T01:01:37.647Z,98830.94
2018-09-14T01:04:05.335Z,98826.64
2018-09-14T01:06:33.020Z,98822.90
2018-09-14T01:09:00.839Z,98824.77
2018-09-14T01:11:28.567Z,98821.03
2018-09-14T01:14:02.590Z,98822.09
2018-09-14T01:16:30.059Z,98819.97
2018-09-14T01:18:57.898Z,98818.63
2018-09-14T01:21:25.570Z,98819.41
2018-09-14T01:23:53.323Z,98825.85
2018-09-14T01:26:21.035Z,98821.30
2018-09-14T01:28:48.790Z,98827.19
2018-09-14T01:31:16.580Z,98825.85
2018-09-14T01:33:44.055Z,98830.94
2018-09-14T01:36:11.864Z,98815.41
2018-09-14T01:38:40.302Z,98817.00
2018-09-14T01:41:08.184Z,98823.98
2018-09-14T01:43:35.971Z,98820.22
2018-09-14T01:46:03.815Z,98820.75
2018-09-14T01:48:31.574Z,98822.64
2018-09-14T01:50:59.324Z,98815.67
2018-09-14T01:53:26.816Z,98811.66
2018-09-14T01:55:54.567Z,98811.66
2018-09-14T01:58:22.221Z,98812.43
2018-09-14T02:00:49.726Z,98809.75
2018-09-14T02:03:17.577Z,98814.33
2018-09-14T02:05:45.121Z,98811.66
2018-09-14T02:08:12.963Z,98811.37
2018-09-14T02:10:40.061Z,98809.78
2018-09-14T02:13:07.718Z,98806.02
2018-09-14T02:15:35.639Z,98800.12
2018-09-14T02:18:03.579Z,98795.30
2018-09-14T02:20:31.071Z,98793.95
2018-09-14T02:22:58.731Z,98797.98
2018-09-14T02:25:26.483Z,98791.03
2018-09-14T02:27:54.282Z,98789.14
2018-09-14T02:30:21.859Z,98790.75
2018-09-14T02:32:49.583Z,98787.27
2018-09-14T02:35:17.295Z,98784.59
2018-09-14T02:37:44.903Z,98781.13
2018-09-14T02:40:12.768Z,98784.06
2018-09-14T02:42:40.494Z,98789.94
2018-09-14T02:45:08.214Z,98788.08
2018-09-14T02:49:16.728Z,98790.23
2018-09-14T02:51:44.458Z,98789.94
2018-09-14T02:54:12.043Z,98787.55
2018-09-14T02:56:39.823Z,98790.23
2018-09-14T02:59:07.579Z,98789.14
2018-09-14T03:01:35.603Z,98787.80
2018-09-14T03:04:03.403Z,98786.20
2018-09-14T03:06:31.222Z,98781.91
2018-09-14T03:08:59.022Z,98783.78
2018-09-14T03:11:26.739Z,98783.53
2018-09-14T03:13:53.897Z,98791.28
2018-09-14T03:16:21.575Z,98783.25
2018-09-14T03:18:49.340Z,98779.23
2018-09-14T03:21:16.491Z,98780.56
2018-09-14T03:23:44.667Z,98782.47
2018-09-14T03:26:12.586Z,98787.80
2018-09-14T03:28:40.882Z,98789.66
2018-09-14T03:31:08.567Z,98793.18
2018-09-14T03:33:35.676Z,98791.56
2018-09-14T03:36:03.311Z,98789.66
2018-09-14T03:38:30.938Z,98788.60
2018-09-14T03:40:58.619Z,98786.73
2018-09-14T03:43:26.409Z,98785.67
2018-09-14T03:45:54.397Z,98791.03
2018-09-14T03:48:22.003Z,98791.03
2018-09-14T03:50:49.722Z,98793.95
2018-09-14T03:53:17.454Z,98788.10
2018-09-14T03:55:45.068Z,98793.70
2018-09-14T03:58:12.735Z,98791.03
2018-09-14T04:03:19.834Z,98786.77
2018-09-14T04:05:47.559Z,98785.42
2018-09-14T04:08:15.291Z,98785.42
2018-09-14T04:10:42.871Z,98787.81
2018-09-14T04:13:11.002Z,98786.77
2018-09-14T04:15:38.714Z,98781.41
2018-09-14T04:18:06.478Z,98788.60
2018-09-14T04:22:41.995Z,98785.70
2018-09-14T04:25:09.650Z,98771.27
2018-09-14T04:27:37.402Z,98784.36
2018-09-14T04:30:05.055Z,98792.38
2018-09-14T04:32:32.914Z,98788.87
2018-09-14T04:35:00.591Z,98788.87
2018-09-14T04:37:28.055Z,98789.16
2018-09-14T04:39:55.697Z,98786.48
2018-09-14T04:42:23.403Z,98787.31
2018-09-14T04:44:51.003Z,98795.09
2018-09-14T04:47:18.819Z,98776.13
2018-09-14T04:49:45.934Z,98792.67
2018-09-14T04:52:13.567Z,98792.11
2018-09-14T04:54:41.390Z,98795.09
2018-09-14T04:57:08.953Z,98802.05
2018-09-14T04:59:36.994Z,98807.41
2018-09-14T05:02:04.063Z,98799.63
2018-09-14T05:04:31.734Z,98803.64
2018-09-14T05:06:59.465Z,98810.31
2018-09-14T05:09:27.054Z,98814.05
2018-09-14T05:11:54.807Z,98811.13
2018-09-14T05:14:22.571Z,98812.71
2018-09-14T05:16:50.154Z,98818.34
2018-09-14T05:19:17.851Z,98816.48
2018-09-14T05:21:45.539Z,98817.56
2018-09-14T05:26:56.846Z,98824.26
2018-09-14T05:29:24.571Z,98823.45
2018-09-14T05:31:52.289Z,98824.25
2018-09-14T05:34:19.953Z,98825.06
2018-09-14T05:36:47.063Z,98826.94
2018-09-14T05:39:14.906Z,98825.85
2018-09-14T05:41:42.638Z,98827.84
2018-09-14T05:44:10.959Z,98825.00
2018-09-14T05:46:38.585Z,98826.55
2018-09-14T05:49:06.287Z,98836.75
2018-09-14T05:51:33.582Z,98830.59
2018-09-14T05:54:01.295Z,98840.26
2018-09-14T05:56:28.428Z,98832.52
2018-09-14T05:58:56.006Z,98837.32
2018-09-14T06:01:23.100Z,98842.66
2018-09-14T06:03:52.920Z,98847.73
2018-09-14T06:06:20.651Z,98849.07
2018-09-14T06:08:48.488Z,98852.01
2018-09-14T06:11:16.018Z,98851.97
2018-09-14T06:13:43.875Z,98853.88
2018-09-14T06:16:11.575Z,98857.02
2018-09-14T06:18:39.059Z,98853.28
2018-09-14T06:23:33.955Z,98862.34
2018-09-14T06:26:01.839Z,98862.34
2018-09-14T06:28:29.578Z,98862.08
2018-09-14T06:30:57.379Z,98852.73
2018-09-14T06:33:24.954Z,98854.33
2018-09-14T06:35:52.573Z,98858.05
2018-09-14T06:38:20.386Z,98854.27
2018-09-14T06:40:48.354Z,98854.30
2018-09-14T06:43:15.915Z,98854.83
2018-09-14T06:45:43.938Z,98857.98
2018-09-14T06:48:15.519Z,98865.21
2018-09-14T06:50:43.007Z,98856.09
2018-09-14T06:53:10.926Z,98856.09
2018-09-14T06:55:38.559Z,98847.31
2018-09-14T06:58:06.290Z,98852.39
2018-09-14T07:00:33.970Z,98854.73
2018-09-14T07:03:01.579Z,98857.39
2018-09-14T07:05:29.003Z,98858.80
2018-09-14T07:07:56.826Z,98859.61
2018-09-14T07:10:24.560Z,98858.73
2018-09-14T07:12:52.310Z,98858.42
2018-09-14T07:15:19.856Z,98862.43
2018-09-14T07:17:47.965Z,98869.95
2018-09-14T07:20:15.197Z,98866.47
2018-09-14T07:22:42.814Z,98867.80
2018-09-14T07:25:10.531Z,98869.88
2018-09-14T07:27:38.375Z,98876.20
2018-09-14T07:30:06.020Z,98876.46
2018-09-14T07:32:33.659Z,98880.25
2018-09-14T07:35:01.379Z,98874.66
2018-09-14T07:37:28.958Z,98876.24
2018-09-14T07:39:57.218Z,98881.91
2018-09-14T07:42:25.338Z,98882.87
2018-09-14T07:44:52.898Z,98886.56
2018-09-14T07:47:20.802Z,98887.67
2018-09-14T07:49:48.529Z,98887.08
2018-09-14T07:52:16.262Z,98889.92
2018-09-14T07:54:43.866Z,98891.21
2018-09-14T07:57:11.678Z,98887.33
2018-09-14T07:59:39.295Z,98891.94
2018-09-14T08:02:06.882Z,98892.97
2018-09-14T08:04:34.914Z,98891.58
2018-09-14T08:07:02.570Z,98896.45
2018-09-14T08:09:30.067Z,98894.30
2018-09-14T08:11:57.803Z,98898.09
2018-09-14T08:14:25.464Z,98901.78
2018-09-14T08:16:53.014Z,98904.41
2018-09-14T08:19:20.723Z,98903.42
2018-09-14T08:21:48.545Z,98903.89
2018-09-14T08:24:16.050Z,98907.37
2018-09-14T08:26:43.938Z,98910.28
2018-09-14T08:29:11.811Z,98915.62
2018-09-14T08:31:39.532Z,98910.03
2018-09-14T08:34:07.296Z,98915.69
2018-09-14T08:36:35.367Z,98920.15
2018-09-14T08:39:03.994Z,98917.73
2018-09-14T08:41:31.669Z,98910.10
2018-09-14T08:43:59.562Z,98922.18
2018-09-14T08:46:27.431Z,98925.77
2018-09-14T08:48:55.219Z,98927.36
2018-09-14T08:51:23.042Z,98926.55
2018-09-14T08:53:50.744Z,98929.47
2018-09-14T08:56:18.541Z,98926.53
2018-09-14T08:58:46.510Z,98929.64
2018-09-14T09:01:14.180Z,98934.49
2018-09-14T09:03:41.962Z,98933.73
2018-09-14T09:06:09.634Z,98933.48
2018-09-14T09:08:37.459Z,98936.38
2018-09-14T09:11:04.632Z,98935.04
2018-09-14T09:13:32.306Z,98936.33
2018-09-14T09:15:59.887Z,98934.97
2018-09-14T09:18:27.666Z,98939.73
2018-09-14T09:20:55.298Z,98936.75
2018-09-14T09:23:22.910Z,98932.25
2018-09-14T09:25:50.617Z,98937.12
2018-09-14T09:28:18.187Z,98938.11
2018-09-14T09:30:45.863Z,98942.92
2018-09-14T09:33:13.602Z,98939.42
2018-09-14T09:35:41.304Z,98939.44
2018-09-14T09:38:09.300Z,98943.36
2018-09-14T09:40:36.867Z,98946.91
2018-09-14T09:43:04.824Z,98947.50
2018-09-14T09:45:32.551Z,98941.91
2018-09-14T09:48:00.355Z,98943.16
2018-09-14T09:50:27.959Z,98916.52
2018-09-14T09:52:55.021Z,98935.30
2018-09-14T09:55:22.790Z,98938.22
2018-09-14T09:57:50.535Z,98935.81
2018-09-14T10:00:24.174Z,98934.54
2018-09-14T10:02:57.639Z,98931.33
2018-09-14T10:05:31.320Z,98933.45
2018-09-14T10:07:58.906Z,98933.73
2018-09-14T10:10:26.580Z,98932.70
2018-09-14T10:12:54.230Z,98935.88
2018-09-14T10:15:21.771Z,98937.22
2018-09-14T10:17:49.527Z,98934.05
2018-09-14T10:20:17.303Z,98937.01
2018-09-14T10:22:45.027Z,98930.34
2018-09-14T10:25:12.070Z,98932.72
2018-09-14T10:27:39.874Z,98933.20
2018-09-14T10:30:07.644Z,98930.59
2018-09-14T10:32:35.575Z,98927.89
2018-09-14T10:35:03.252Z,98927.62
2018-09-14T10:37:30.881Z,98935.31
2018-09-14T10:39:58.670Z,98934.55
2018-09-14T10:45:13.014Z,98937.53
2018-09-14T10:47:40.706Z,98929.84
2018-09-14T10:50:08.567Z,98923.12
2018-09-14T10:52:36.167Z,98920.95
2018-09-14T10:55:03.814Z,98916.38
2018-09-14T10:57:31.518Z,98924.14
2018-09-14T10:59:58.646Z,98912.96
2018-09-14T11:02:26.439Z,98915.42
2018-09-14T11:04:54.002Z,98913.58
2018-09-14T11:07:21.870Z,98917.54
2018-09-14T11:09:49.610Z,98912.77
2018-09-14T11:12:17.415Z,98914.09
2018-09-14T11:14:45.214Z,98916.26
2018-09-14T11:17:12.778Z,98915.22
2018-09-14T11:19:40.487Z,98898.48
2018-09-14T11:22:08.011Z,98905.97
2018-09-14T11:24:35.322Z,98900.93
2018-09-14T11:27:03.000Z,98902.27
2018-09-14T11:29:30.649Z,98903.61
2018-09-14T11:31:58.478Z,98902.78
2018-09-14T11:34:26.527Z,98891.03
2018-09-14T11:36:54.239Z,98890.48
2018-09-14T11:39:21.307Z,98889.70
2018-09-14T11:41:48.947Z,98890.00
2018-09-14T11:44:16.579Z,98883.85
2018-09-14T11:46:44.347Z,98889.23
2018-09-14T11:49:12.003Z,98882.26
2018-09-14T11:51:39.312Z,98884.11
2018-09-14T11:54:07.484Z,98875.07
2018-09-14T11:56:35.958Z,98882.03
2018-09-14T11:59:04.350Z,98880.73
2018-09-14T12:01:32.013Z,98882.33
2018-09-14T12:03:59.971Z,98878.61
2018-09-14T12:06:27.054Z,98880.21
2018-09-14T12:08:54.838Z,98873.25
2018-09-14T12:11:22.672Z,98878.61
2018-09-14T12:13:50.719Z,98875.71
2018-09-14T12:16:18.135Z,98879.16
2018-09-14T12:18:45.846Z,98871.70
2018-09-14T12:21:13.031Z,98870.96
2018-09-14T12:23:40.369Z,98865.63
2018-09-14T12:26:07.998Z,98866.14
2018-09-14T12:28:35.839Z,98862.98
2018-09-14T12:31:03.603Z,98865.64
2018-09-14T12:33:31.463Z,98865.91
2018-09-14T12:35:59.019Z,98862.70
2018-09-14T12:38:26.744Z,98857.34
2018-09-14T12:40:54.415Z,98854.41
2018-09-14T12:43:22.063Z,98850.44
2018-09-14T12:45:49.951Z,98853.36
2018-09-14T12:48:17.603Z,98856.84
2018-09-14T12:50:45.379Z,98848.55
2018-09-14T12:53:12.484Z,98844.81
2018-09-14T12:55:40.010Z,98844.80
2018-09-14T12:58:07.064Z,98852.02
2018-09-14T13:00:34.280Z,98850.70
2018-09-14T13:03:01.847Z,98842.11
2018-09-14T13:05:29.522Z,98846.38
2018-09-14T13:07:57.354Z,98839.72
2018-09-14T13:10:25.579Z,98843.97
2018-09-14T13:12:53.391Z,98842.36
2018-09-14T13:15:20.921Z,98843.75
2018-09-14T13:17:48.570Z,98835.42
2018-09-14T13:20:16.207Z,98835.98
2018-09-14T13:22:43.826Z,98838.64
2018-09-14T13:25:11.588Z,98837.84
2018-09-14T13:27:38.971Z,98830.64
2018-09-14T13:30:06.975Z,98825.55
2018-09-14T13:32:34.056Z,98822.33
2018-09-14T13:35:01.784Z,98824.47
2018-09-14T13:37:29.519Z,98825.80
2018-09-14T13:39:57.040Z,98828.20
2018-09-14T13:42:24.799Z,98823.67
2018-09-14T13:44:52.532Z,98814.87
2018-09-14T13:47:20.063Z,98810.84
2018-09-14T13:49:47.804Z,98814.59
2018-09-14T13:52:15.491Z,98807.34
2018-09-14T13:54:42.578Z,98808.65
2018-09-14T13:58:39.594Z,98799.59
2018-09-14T14:01:07.076Z,98810.78
2018-09-14T14:03:34.792Z,98810.78
2018-09-14T14:06:02.887Z,98809.98
2018-09-14T14:08:30.579Z,98813.19
2018-09-14T14:10:58.234Z,98807.84
2018-09-14T14:13:25.774Z,98808.90
2018-09-14T14:15:53.491Z,98811.02
2018-09-14T14:18:21.007Z,98804.84
2018-09-14T14:20:48.616Z,98800.84
2018-09-14T14:23:16.425Z,98805.13
2018-09-14T14:25:43.523Z,98803.23
2018-09-14T14:28:11.302Z,98802.17
2018-09-14T14:30:39.503Z,98799.75
2018-09-14T14:33:07.607Z,98799.73
2018-09-14T14:35:35.429Z,98796.27
2018-09-14T14:38:03.217Z,98801.09
2018-09-14T14:40:30.297Z,98803.48
2018-09-14T14:42:57.943Z,98802.13
2018-09-14T14:45:25.661Z,98789.27
2018-09-14T14:47:53.298Z,98785.53
2018-09-14T14:50:21.035Z,98791.16
2018-09-14T14:53:05.804Z,98795.70
2018-09-14T14:55:33.545Z,98790.88
2018-09-14T14:58:01.056Z,98793.02
2018-09-14T15:00:28.378Z,98791.98
2018-09-14T15:02:55.990Z,98789.34
2018-09-14T15:05:23.599Z,98786.69
2018-09-14T15:07:51.298Z,98793.11
2018-09-14T15:10:18.974Z,98790.39
2018-09-14T15:12:46.226Z,98795.20
2018-09-14T15:15:14.019Z,98783.95
2018-09-14T15:17:41.796Z,98789.55
2018-09-14T15:20:09.523Z,98780.75
2018-09-14T15:22:37.201Z,98785.03
2018-09-14T15:25:04.992Z,98784.48
2018-09-14T15:27:32.738Z,98793.02
2018-09-14T15:30:00.423Z,98780.18
2018-09-14T15:32:28.043Z,98790.34
2018-09-14T15:34:55.743Z,98783.90
2018-09-14T15:37:23.810Z,98790.56
2018-09-14T15:39:51.503Z,98782.81
2018-09-14T15:42:19.067Z,98790.31
2018-09-14T15:44:46.720Z,98788.70
2018-09-14T15:47:14.456Z,98785.22
2018-09-14T15:49:41.987Z,98783.35
2018-09-14T15:52:09.738Z,98783.86
2018-09-14T15:54:37.495Z,98764.40
2018-09-14T15:57:05.311Z,98784.92
2018-09-14T15:59:33.017Z,98786.27
2018-09-14T16:02:00.735Z,98790.82
2018-09-14T16:04:28.519Z,98788.94
2018-09-14T16:06:56.175Z,98792.41
2018-09-14T16:09:23.934Z,98790.82
2018-09-14T16:11:51.903Z,98798.84
2018-09-14T16:14:19.975Z,98794.02
2018-09-14T16:16:47.224Z,98796.69
2018-09-14T16:19:14.845Z,98788.16
2018-09-14T16:21:43.563Z,98796.73
2018-09-14T16:24:11.173Z,98793.22
2018-09-14T16:26:38.738Z,98794.84
2018-09-14T16:29:06.771Z,98801.79
2018-09-14T16:31:34.598Z,98801.00
2018-09-14T16:34:02.388Z,98801.55
2018-09-14T16:36:29.549Z,98804.50
2018-09-14T16:38:57.291Z,98804.22
2018-09-14T16:41:25.064Z,98805.56
2018-09-14T16:43:53.192Z,98808.53
2018-09-14T16:46:20.742Z,98803.45
2018-09-14T16:48:48.503Z,98802.13
2018-09-14T16:51:16.409Z,98796.78
2018-09-14T16:53:44.471Z,98797.29
2018-09-14T16:56:12.290Z,98793.81
2018-09-14T16:58:40.019Z,98798.91
2018-09-14T17:01:07.879Z,98793.27
2018-09-14T17:03:35.571Z,98791.43
2018-09-14T17:06:03.050Z,98793.31
2018-09-14T17:08:30.919Z,98788.77
2018-09-14T17:10:58.850Z,98793.33
2018-09-14T17:13:26.551Z,98796.80
2018-09-14T17:15:54.291Z,98797.33
2018-09-14T17:18:22.003Z,98800.84
2018-09-14T17:20:49.867Z,98806.19
2018-09-14T17:23:17.582Z,98814.22
2018-09-14T17:25:45.293Z,98807.52
2018-09-14T17:28:13.069Z,98810.16
2018-09-14T17:30:40.767Z,98813.13
2018-09-14T17:33:08.519Z,98798.45
2018-09-14T17:35:36.101Z,98809.91
2018-09-14T17:38:03.820Z,98809.09
2018-09-14T17:40:36.233Z,98808.86
2018-09-14T17:43:04.063Z,98815.82
2018-09-14T17:45:31.823Z,98826.25
2018-09-14T17:47:59.575Z,98827.06
2018-09-14T17:50:27.235Z,98836.17
2018-09-14T17:52:54.754Z,98838.58
2018-09-14T17:55:22.462Z,98832.94
2018-09-14T17:57:50.335Z,98832.41
2018-09-14T18:00:17.911Z,98837.23
2018-09-14T18:02:45.622Z,98833.48
2018-09-14T18:05:13.413Z,98839.06
2018-09-14T18:07:41.013Z,98841.22
2018-09-14T18:10:08.423Z,98842.02
2018-09-14T18:12:35.974Z,98846.84
2018-09-14T18:15:03.906Z,98851.92
2018-09-14T18:17:31.826Z,98850.02
2018-09-14T18:19:59.584Z,98854.59
2018-09-14T18:22:26.648Z,98861.53
2018-09-14T18:24:54.387Z,98855.66
2018-09-14T18:27:22.050Z,98858.34
2018-09-14T18:29:49.668Z,98862.60
2018-09-14T18:32:17.559Z,98857.78
2018-09-14T18:34:45.531Z,98862.33
2018-09-14T18:37:13.213Z,98864.45
2018-09-14T18:39:40.318Z,98862.84
2018-09-14T18:42:07.949Z,98863.13
2018-09-14T18:44:35.050Z,98870.09
2018-09-14T18:47:02.709Z,98870.61
2018-09-14T18:49:30.495Z,98865.80
2018-09-14T18:51:58.718Z,98862.33
2018-09-14T18:54:26.567Z,98863.41
2018-09-14T18:56:54.299Z,98871.44
2018-09-14T18:59:22.014Z,98873.56
2018-09-14T19:01:49.802Z,98882.92
2018-09-14T19:04:17.527Z,98880.80
2018-09-14T19:06:45.038Z,98879.47
2018-09-14T19:09:12.819Z,98883.48
2018-09-14T19:11:40.554Z,98878.13
2018-09-14T19:14:08.423Z,98887.49
2018-09-14T19:16:36.212Z,98890.44
2018-09-14T19:19:03.981Z,98893.38
2018-09-14T19:21:31.044Z,98886.95
2018-09-14T19:23:59.003Z,98893.89
2018-09-14T19:26:26.755Z,98898.47
2018-09-14T19:28:54.646Z,98893.64
2018-09-14T19:31:22.319Z,98896.31
2018-09-14T19:33:50.031Z,98898.99
2018-09-14T19:36:17.678Z,98900.08
2018-09-14T19:38:45.566Z,98899.79
2018-09-14T19:41:13.083Z,98900.86
2018-09-14T19:43:40.878Z,98901.67
2018-09-14T19:46:08.568Z,98898.45
2018-09-14T19:48:36.306Z,98895.77
2018-09-14T19:51:03.457Z,98900.08
2018-09-14T19:53:31.023Z,98900.08
2018-09-14T19:55:58.834Z,98902.75
2018-09-14T19:58:26.567Z,98898.99
2018-09-14T20:00:53.823Z,98898.99
2018-09-14T20:03:45.739Z,98897.91
2018-09-14T20:06:13.588Z,98898.73
2018-09-14T20:08:41.354Z,98893.09
2018-09-14T20:11:08.994Z,98899.52
2018-09-14T20:13:36.335Z,98900.08
2018-09-14T20:16:03.963Z,98894.72
2018-09-14T20:18:31.797Z,98895.77
2018-09-14T20:20:59.427Z,98895.23
2018-09-14T20:23:27.011Z,98893.39
2018-09-14T20:25:54.815Z,98901.67
2018-09-14T20:28:22.334Z,98901.41
2018-09-14T20:30:49.974Z,98900.33
2018-09-14T20:33:17.635Z,98900.06
2018-09-14T20:35:45.363Z,98897.66
2018-09-14T20:38:13.010Z,98898.99
2018-09-14T20:40:40.394Z,98897.13
2018-09-14T20:43:08.017Z,98888.29
2018-09-14T20:45:35.847Z,98893.38
2018-09-14T20:48:03.563Z,98892.56
2018-09-14T20:50:31.291Z,98892.84
2018-09-14T20:52:58.928Z,98893.09
2018-09-14T20:55:26.691Z,98892.30
2018-09-14T20:57:54.471Z,98894.98
2018-09-14T21:00:23.895Z,98894.17
2018-09-14T21:02:51.830Z,98895.77
2018-09-14T21:05:19.378Z,98893.89
2018-09-14T21:07:46.971Z,98895.79
2018-09-14T21:10:14.667Z,98878.42
2018-09-14T21:12:42.514Z,98815.39
2018-09-14T21:15:10.447Z,98895.52
2018-09-14T21:17:38.011Z,98890.16
2018-09-14T21:20:05.265Z,98900.88
2018-09-14T21:22:32.879Z,98890.97
2018-09-14T21:25:00.570Z,98891.51
2018-09-14T21:27:28.383Z,98886.66
2018-09-14T21:29:56.447Z,98893.09
2018-09-14T21:32:24.414Z,98902.72
2018-09-14T21:34:52.054Z,98902.20
2018-09-14T21:37:19.839Z,98904.88
2018-09-14T21:39:47.561Z,98900.59
2018-09-14T21:42:15.417Z,98900.88
2018-09-14T21:44:42.574Z,98895.52
2018-09-14T21:47:12.880Z,98900.88
2018-09-14T21:49:40.574Z,98901.13
2018-09-14T21:52:08.043Z,98910.49
2018-09-14T21:54:35.723Z,98917.69
2018-09-14T21:57:03.598Z,98913.42
2018-09-14T21:59:31.535Z,98921.98
2018-09-14T22:01:59.458Z,98917.18
2018-09-14T22:04:27.338Z,98916.92
2018-09-14T22:06:55.052Z,98919.05
2018-09-14T22:09:22.751Z,98912.91
2018-09-14T22:11:50.511Z,98917.44
2018-09-14T22:14:18.340Z,98922.26
2018-09-14T22:16:45.947Z,98915.84
2018-09-14T22:19:13.050Z,98915.02
2018-09-14T22:21:40.807Z,98921.19
2018-09-14T22:24:08.575Z,98920.36
2018-09-14T22:26:36.390Z,98910.75
2018-09-14T22:29:03.552Z,98920.11
2018-09-14T22:31:31.055Z,98917.44
2018-09-14T22:33:58.827Z,98927.85
2018-09-14T22:36:26.743Z,98926.52
2018-09-14T22:38:54.719Z,98924.13
2018-09-14T22:41:22.507Z,98926.80
2018-09-14T22:43:50.177Z,98934.29
2018-09-14T22:46:17.907Z,98942.05
2018-09-14T22:48:46.870Z,98939.07
2018-09-14T22:51:14.702Z,98945.25
2018-09-14T22:53:42.493Z,98945.25
2018-09-14T22:56:10.462Z,98949.77
2018-09-14T22:58:38.571Z,98956.47
2018-09-14T23:01:12.040Z,98954.86
2018-09-14T23:03:39.332Z,98951.11
2018-09-14T23:06:07.006Z,98953.28
2018-09-14T23:08:34.602Z,98951.11
2018-09-14T23:11:02.422Z,98955.41
2018-09-14T23:13:29.543Z,98955.41
2018-09-14T23:15:58.798Z,98959.14
2018-09-14T23:18:27.046Z,98955.41
2018-09-14T23:20:54.711Z,98963.45
2018-09-14T23:23:22.729Z,98956.75
2018-09-14T23:25:51.206Z,98961.04
2018-09-14T23:28:48.291Z,98957.55
2018-09-14T23:31:15.878Z,98953.53
2018-09-14T23:33:43.574Z,98957.02
2018-09-14T23:36:11.390Z,98954.36
2018-09-14T23:38:39.194Z,98957.27
2018-09-14T23:41:06.766Z,98954.59
2018-09-14T23:43:34.479Z,98961.56
2018-09-14T23:46:02.217Z,98964.24
2018-09-14T23:48:29.878Z,98957.01
2018-09-14T23:50:57.567Z,98959.42
2018-09-14T23:53:24.643Z,98958.09
2018-09-14T23:55:52.492Z,98963.44
2018-09-14T23:58:20.007Z,98962.11
